KRNT - Renton
Updated: Tue, 11-Dec-2018 12:53am PST

 Wind from S
Wind: S 3 mph , 6 km/h
Temperature: 43°F , 6°C
Dew Point: 39°F , 4°C
Humidity: 87%
Barometer: 30.13 inHg , 1020.3 hPa
Visibility: 10 miles , 16 km
Cloud details: 5000 ft
6500 ft
2018/12/11 08:53 KRNT 110853Z AUTO 17003KT 10SM FEW050 OVC065 06/04 A3013 RMK AO2 SLP208 T00610039 58022 $
KBFI - Seattle-Boeing
Updated: Tue, 11-Dec-2018 12:53am PST

 Wind from SSE
Wind: SSE 6 mph , 9 km/h
Temperature: 45°F , 7°C
Wind Chill: 42°F , 6°C
Dew Point: 37°F , 3°C
Humidity: 76%
Barometer: 30.13 inHg , 1020.3 hPa
Visibility: 10 miles , 16 km
Cloud details: 4600 ft
6000 ft
2018/12/11 08:53 KBFI 110853Z 16005KT 10SM FEW046 OVC060 07/03 A3013 RMK AO2 SLP203 T00670033 58020
 
KSEA - Seattle
Updated: Tue, 11-Dec-2018 12:53am PST

 Wind from SSE
Wind: SSE 8 mph , 13 km/h
Temperature: 45°F , 7°C
Wind Chill: 41°F , 5°C
Dew Point: 37°F , 3°C
Humidity: 76%
Barometer: 30.12 inHg , 1020 hPa
Visibility: 10 miles , 16 km
Cloud details: 4500 ft
5000 ft
2018/12/11 08:53 KSEA 110853Z 15007KT 10SM FEW045 OVC050 07/03 A3012 RMK AO2 SLP208 T00670028 58021
KSMP - Stampede Pass
Updated: Tue, 11-Dec-2018 12:32am PST
Mist, Overcast
Mist, Overcast
 Wind from calm
Wind: Calm
Temperature: 30°F , -1°C
Dew Point: 28°F , -2°C
Humidity: 93%
Barometer: 30.09 inHg , 1019 hPa
Visibility: 3/4 mile , 1.2 km
Cloud details: 300 ft
2018/12/11 08:32 KSMP 110832Z AUTO 00000KT 3/4SM BR VV003 M01/M02 A3009 RMK AO2 T10061022 $